createdAt,value
2019-05-29T03:03:16.217Z,3.12
2019-05-29T03:05:47.586Z,3.17
2019-05-29T03:08:18.842Z,3.08
2019-05-29T03:10:50.242Z,3.23
2019-05-29T03:13:25.255Z,3.55
2019-05-29T03:16:10.578Z,3.17
2019-05-29T03:18:35.370Z,3.30
2019-05-29T03:21:07.263Z,3.47
2019-05-29T03:23:38.819Z,3.40
2019-05-29T03:26:10.194Z,2.70
2019-05-29T03:28:41.873Z,3.55
2019-05-29T03:31:13.469Z,3.50
2019-05-29T03:33:49.889Z,3.33
2019-05-29T03:36:20.114Z,3.33
2019-05-29T03:38:51.657Z,3.40
2019-05-29T03:41:26.187Z,4.00
2019-05-29T03:43:57.607Z,3.52
2019-05-29T03:46:34.239Z,3.20
2019-05-29T03:49:02.945Z,3.08
2019-05-29T03:51:36.703Z,3.10
2019-05-29T03:54:08.258Z,3.40
2019-05-29T03:56:40.410Z,3.30
2019-05-29T03:59:11.754Z,4.08
2019-05-29T04:01:44.591Z,4.17
2019-05-29T04:04:16.112Z,4.15
2019-05-29T04:06:49.404Z,3.83
2019-05-29T04:09:20.945Z,4.17
2019-05-29T04:11:52.683Z,3.95
2019-05-29T04:14:24.957Z,4.17
2019-05-29T04:17:00.254Z,4.00
2019-05-29T04:19:34.846Z,4.15
2019-05-29T04:22:10.134Z,4.17
2019-05-29T04:24:41.572Z,4.22
2019-05-29T04:27:14.905Z,4.40
2019-05-29T04:29:48.388Z,3.17
2019-05-29T04:32:19.653Z,3.37
2019-05-29T04:34:51.209Z,3.20
2019-05-29T04:37:22.640Z,3.47
2019-05-29T04:39:54.471Z,3.47
2019-05-29T04:42:25.735Z,3.72
2019-05-29T04:44:58.089Z,2.60
2019-05-29T04:47:30.742Z,2.55
2019-05-29T04:50:02.603Z,3.08
2019-05-29T04:52:35.938Z,2.92
2019-05-29T04:55:08.110Z,2.22
2019-05-29T04:57:39.608Z,2.83
2019-05-29T05:00:12.133Z,2.60
2019-05-29T05:02:43.629Z,2.37
2019-05-29T05:05:19.253Z,2.75
2019-05-29T05:07:48.968Z,2.20
2019-05-29T05:10:35.671Z,2.62
2019-05-29T05:13:07.758Z,2.42
2019-05-29T05:15:40.174Z,2.70
2019-05-29T05:18:11.807Z,2.62
2019-05-29T05:20:43.133Z,2.55
2019-05-29T05:23:14.524Z,2.17
2019-05-29T05:25:46.094Z,2.55
2019-05-29T05:28:17.461Z,2.12
2019-05-29T05:30:48.747Z,2.15
2019-05-29T05:33:20.195Z,2.75
2019-05-29T05:35:53.059Z,2.60
2019-05-29T05:38:24.564Z,2.10
2019-05-29T05:40:55.898Z,2.30
2019-05-29T05:43:27.410Z,2.02
2019-05-29T05:45:58.858Z,2.02
2019-05-29T05:48:30.954Z,2.15
2019-05-29T05:51:02.658Z,2.47
2019-05-29T05:53:35.311Z,2.20
2019-05-29T05:56:06.866Z,2.62
2019-05-29T05:58:38.296Z,2.40
2019-05-29T06:01:09.830Z,2.17
2019-05-29T06:03:42.415Z,1.95
2019-05-29T06:06:14.611Z,2.00
2019-05-29T06:08:46.110Z,2.20
2019-05-29T06:11:17.297Z,2.15
2019-05-29T06:13:48.614Z,2.70
2019-05-29T06:16:19.809Z,2.62
2019-05-29T06:18:51.253Z,1.82
2019-05-29T06:21:22.656Z,1.55
2019-05-29T06:23:53.925Z,2.52
2019-05-29T06:26:25.341Z,1.60
2019-05-29T06:28:56.893Z,1.77
2019-05-29T06:31:28.255Z,1.47
2019-05-29T06:33:59.913Z,1.60
2019-05-29T06:36:31.597Z,1.30
2019-05-29T06:39:03.787Z,1.80
2019-05-29T06:41:35.663Z,1.60
2019-05-29T06:44:07.560Z,2.02
2019-05-29T06:46:40.281Z,1.27
2019-05-29T06:49:12.308Z,1.30
2019-05-29T06:51:43.982Z,1.32
2019-05-29T06:54:15.272Z,1.40
2019-05-29T06:56:47.974Z,1.57
2019-05-29T06:59:19.323Z,1.60
2019-05-29T07:01:50.895Z,1.30
2019-05-29T07:04:22.371Z,1.95
2019-05-29T07:06:53.811Z,1.40
2019-05-29T07:09:25.518Z,2.02
2019-05-29T07:11:57.329Z,1.60
2019-05-29T07:14:28.965Z,1.22
2019-05-29T07:17:00.294Z,1.47
2019-05-29T07:19:47.410Z,1.55
2019-05-29T07:22:04.904Z,1.60
2019-05-29T07:24:37.020Z,1.57
2019-05-29T07:27:13.359Z,1.12
2019-05-29T07:29:43.343Z,1.10
2019-05-29T07:32:15.089Z,1.10
2019-05-29T07:34:57.852Z,1.10
2019-05-29T07:37:19.824Z,1.35
2019-05-29T07:39:51.250Z,1.20
2019-05-29T07:42:22.542Z,1.07
2019-05-29T07:44:54.329Z,1.30
2019-05-29T07:47:25.815Z,1.00
2019-05-29T07:49:57.320Z,1.30
2019-05-29T07:52:29.150Z,1.75
2019-05-29T07:55:01.162Z,1.50
2019-05-29T07:57:32.609Z,1.62
2019-05-29T08:00:04.658Z,1.30
2019-05-29T08:02:37.505Z,1.50
2019-05-29T08:05:10.387Z,1.30
2019-05-29T08:07:43.440Z,1.22
2019-05-29T08:10:15.732Z,1.07
2019-05-29T08:12:53.195Z,1.65
2019-05-29T08:15:21.356Z,1.40
2019-05-29T08:17:52.702Z,0.93
2019-05-29T08:20:23.927Z,1.20
2019-05-29T08:22:55.319Z,1.50
2019-05-29T08:25:26.599Z,2.15
2019-05-29T08:27:58.175Z,1.45
2019-05-29T08:30:30.167Z,1.50
2019-05-29T08:33:01.741Z,1.27
2019-05-29T08:35:33.604Z,1.37
2019-05-29T08:38:05.207Z,1.15
2019-05-29T08:40:37.774Z,1.40
2019-05-29T08:43:08.987Z,1.40
2019-05-29T08:45:41.453Z,1.32
2019-05-29T08:48:12.923Z,1.10
2019-05-29T08:50:44.400Z,1.40
2019-05-29T08:53:16.203Z,1.37
2019-05-29T08:55:48.351Z,1.17
2019-05-29T08:58:20.302Z,1.60
2019-05-29T09:00:55.132Z,1.20
2019-05-29T09:03:25.165Z,1.10
2019-05-29T09:06:08.486Z,1.17
2019-05-29T09:08:30.003Z,0.95
2019-05-29T09:11:01.500Z,1.10
2019-05-29T09:13:32.853Z,1.05
2019-05-29T09:16:04.515Z,1.40
2019-05-29T09:18:36.013Z,1.05
2019-05-29T09:21:07.310Z,1.25
2019-05-29T09:23:38.826Z,1.10
2019-05-29T09:26:15.921Z,1.55
2019-05-29T09:28:43.363Z,1.57
2019-05-29T09:31:16.937Z,1.22
2019-05-29T09:33:48.565Z,1.30
2019-05-29T09:36:20.689Z,1.32
2019-05-29T09:38:52.254Z,1.42
2019-05-29T09:41:25.465Z,1.20
2019-05-29T09:43:59.637Z,1.20
2019-05-29T09:46:30.194Z,1.32
2019-05-29T09:49:01.925Z,1.32
2019-05-29T09:51:33.633Z,1.25
2019-05-29T09:54:04.874Z,0.98
2019-05-29T09:56:36.393Z,0.80
2019-05-29T09:59:08.004Z,1.55
2019-05-29T10:01:39.351Z,1.10
2019-05-29T10:04:10.817Z,1.02
2019-05-29T10:06:42.249Z,1.27
2019-05-29T10:09:13.720Z,1.12
2019-05-29T10:11:45.102Z,1.27
2019-05-29T10:14:16.488Z,1.07
2019-05-29T10:16:48.234Z,0.93
2019-05-29T10:19:19.617Z,0.80
2019-05-29T10:21:50.874Z,1.10
2019-05-29T10:24:22.224Z,1.25
2019-05-29T10:26:53.667Z,1.27
2019-05-29T10:29:25.138Z,1.30
2019-05-29T10:31:57.799Z,1.10
2019-05-29T10:34:29.278Z,1.20
2019-05-29T10:37:00.685Z,1.12
2019-05-29T10:39:32.339Z,1.15
2019-05-29T10:42:03.745Z,1.20
2019-05-29T10:44:35.706Z,1.20
2019-05-29T10:47:07.098Z,1.12
2019-05-29T10:49:38.631Z,1.17
2019-05-29T10:52:16.049Z,1.40
2019-05-29T10:54:44.079Z,1.17
2019-05-29T10:57:16.708Z,1.00
2019-05-29T10:59:49.169Z,1.35
2019-05-29T11:02:20.808Z,1.00
2019-05-29T11:04:56.356Z,1.10
2019-05-29T11:07:25.798Z,1.07
2019-05-29T11:09:57.247Z,1.10
2019-05-29T11:12:28.998Z,1.10
2019-05-29T11:15:00.342Z,1.32
2019-05-29T11:17:31.890Z,1.10
2019-05-29T11:20:03.254Z,1.10
2019-05-29T11:22:35.105Z,1.10
2019-05-29T11:25:21.695Z,0.90
2019-05-29T11:27:41.577Z,1.00
2019-05-29T11:30:13.135Z,1.25
2019-05-29T11:32:47.468Z,1.50
2019-05-29T11:35:17.617Z,1.10
2019-05-29T11:37:52.504Z,1.20
2019-05-29T11:40:24.183Z,1.20
2019-05-29T11:42:56.799Z,1.15
2019-05-29T11:45:29.898Z,1.12
2019-05-29T11:48:01.762Z,1.07
2019-05-29T11:50:33.663Z,1.55
2019-05-29T11:53:05.266Z,1.10
2019-05-29T11:55:36.834Z,1.07
2019-05-29T11:58:08.537Z,1.40
2019-05-29T12:00:40.164Z,1.12
2019-05-29T12:03:11.651Z,1.15
2019-05-29T12:05:43.613Z,0.90
2019-05-29T12:08:15.031Z,1.10
2019-05-29T12:10:46.469Z,0.98
2019-05-29T12:13:18.036Z,1.02
2019-05-29T12:15:49.649Z,1.15
2019-05-29T12:18:24.241Z,1.10
2019-05-29T12:20:56.143Z,1.20
2019-05-29T12:23:27.647Z,1.55
2019-05-29T12:26:19.710Z,0.90
2019-05-29T12:28:34.799Z,1.00
2019-05-29T12:31:06.166Z,1.10
2019-05-29T12:33:37.637Z,1.02
2019-05-29T12:36:09.238Z,1.05
2019-05-29T12:38:40.791Z,1.42
2019-05-29T12:41:12.383Z,1.30
2019-05-29T12:43:44.139Z,1.27
2019-05-29T12:46:15.606Z,1.30
2019-05-29T12:48:47.076Z,1.05
2019-05-29T12:51:18.442Z,0.90
2019-05-29T12:53:51.841Z,1.15
2019-05-29T12:56:23.563Z,1.10
2019-05-29T12:58:56.021Z,1.37
2019-05-29T13:01:27.688Z,1.32
2019-05-29T13:04:00.273Z,1.55
2019-05-29T13:06:32.809Z,1.15
2019-05-29T13:09:05.761Z,1.52
2019-05-29T13:11:37.423Z,1.50
2019-05-29T13:14:08.714Z,1.42
2019-05-29T13:16:40.085Z,1.52
2019-05-29T13:19:11.725Z,1.17
2019-05-29T13:21:43.110Z,1.20
2019-05-29T13:24:14.366Z,1.25
2019-05-29T13:26:46.201Z,1.30
2019-05-29T13:29:17.542Z,1.20
2019-05-29T13:31:48.932Z,1.30
2019-05-29T13:34:20.359Z,1.60
2019-05-29T13:36:52.129Z,1.40
2019-05-29T13:39:24.521Z,1.50
2019-05-29T13:41:56.156Z,2.22
2019-05-29T13:44:27.745Z,1.40
2019-05-29T13:46:59.905Z,1.60
2019-05-29T13:49:31.602Z,1.45
2019-05-29T13:52:08.255Z,1.05
2019-05-29T13:54:37.242Z,1.57
2019-05-29T13:57:08.733Z,1.42
2019-05-29T13:59:40.295Z,1.30
2019-05-29T14:02:11.775Z,1.52
2019-05-29T14:04:43.231Z,1.05
2019-05-29T14:07:14.669Z,1.45
2019-05-29T14:09:46.009Z,1.12
2019-05-29T14:12:17.375Z,1.35
2019-05-29T14:14:48.823Z,1.50
2019-05-29T14:17:20.432Z,1.20
2019-05-29T14:19:51.808Z,1.17
2019-05-29T14:22:23.529Z,1.37
2019-05-29T14:24:54.821Z,1.30
2019-05-29T14:27:26.515Z,1.40
2019-05-29T14:29:58.269Z,1.10
2019-05-29T14:32:30.035Z,1.37
2019-05-29T14:35:04.324Z,1.87
2019-05-29T14:37:35.590Z,1.22
2019-05-29T14:40:07.925Z,1.25
2019-05-29T14:42:40.601Z,1.20
2019-05-29T14:45:12.504Z,1.65
2019-05-29T14:47:44.409Z,1.12
2019-05-29T14:50:16.003Z,1.22
2019-05-29T14:52:47.469Z,1.12
2019-05-29T14:55:19.159Z,1.17
2019-05-29T14:57:50.533Z,1.55
2019-05-29T15:00:25.507Z,1.20
2019-05-29T15:02:55.945Z,1.35
2019-05-29T15:05:27.177Z,1.40
2019-05-29T15:08:00.885Z,1.37
2019-05-29T15:10:32.488Z,0.90
2019-05-29T15:13:08.655Z,1.15
2019-05-29T15:15:43.681Z,1.65
2019-05-29T15:18:18.800Z,0.95
2019-05-29T15:20:56.324Z,1.72
2019-05-29T15:23:27.629Z,1.40
2019-05-29T15:25:59.101Z,1.32
2019-05-29T15:28:31.359Z,1.32
2019-05-29T15:31:03.499Z,1.30
2019-05-29T15:33:34.817Z,1.30
2019-05-29T15:36:08.630Z,1.10
2019-05-29T15:38:40.446Z,0.93
2019-05-29T15:41:12.814Z,1.20
2019-05-29T15:43:49.481Z,1.00
2019-05-29T15:46:21.008Z,1.10
2019-05-29T15:48:52.181Z,1.05
2019-05-29T15:51:24.107Z,1.45
2019-05-29T15:53:55.622Z,1.20
2019-05-29T15:56:28.204Z,1.00
2019-05-29T15:59:00.675Z,1.60
2019-05-29T16:01:32.177Z,1.57
2019-05-29T16:04:04.208Z,1.05
2019-05-29T16:06:36.087Z,1.25
2019-05-29T16:09:10.079Z,1.27
2019-05-29T16:11:41.808Z,1.20
2019-05-29T16:14:13.383Z,1.22
2019-05-29T16:16:44.789Z,1.10
2019-05-29T16:19:16.315Z,1.20
2019-05-29T16:21:47.922Z,1.20
2019-05-29T16:24:19.155Z,1.20
2019-05-29T16:26:50.543Z,1.22
2019-05-29T16:29:22.628Z,1.00
2019-05-29T16:31:54.203Z,1.00
2019-05-29T16:34:25.452Z,1.02
2019-05-29T16:36:56.944Z,1.10
2019-05-29T16:39:28.252Z,1.07
2019-05-29T16:41:59.873Z,1.05
2019-05-29T16:44:31.858Z,1.05
2019-05-29T16:47:03.418Z,1.10
2019-05-29T16:49:34.883Z,1.00
2019-05-29T16:52:06.854Z,1.27
2019-05-29T16:54:42.411Z,1.05
2019-05-29T16:57:15.005Z,0.80
2019-05-29T16:59:46.566Z,1.22
2019-05-29T17:02:18.071Z,1.20
2019-05-29T17:04:49.737Z,1.30
2019-05-29T17:07:24.151Z,1.20
2019-05-29T17:09:57.364Z,1.42
2019-05-29T17:12:28.773Z,1.20
2019-05-29T17:15:00.779Z,1.30
2019-05-29T17:17:34.795Z,1.20
2019-05-29T17:20:07.119Z,1.40
2019-05-29T17:22:41.978Z,1.10
2019-05-29T17:25:16.887Z,1.25
2019-05-29T17:27:48.160Z,1.07
2019-05-29T17:30:23.583Z,1.42
2019-05-29T17:32:55.326Z,1.02
2019-05-29T17:35:26.813Z,1.10
2019-05-29T17:38:00.445Z,1.15
2019-05-29T17:40:33.334Z,1.10
2019-05-29T17:43:04.870Z,1.10
2019-05-29T17:45:36.335Z,0.95
2019-05-29T17:48:08.199Z,1.17
2019-05-29T17:50:39.795Z,1.10
2019-05-29T17:53:12.055Z,1.50
2019-05-29T17:55:46.698Z,1.42
2019-05-29T17:58:18.561Z,1.25
2019-05-29T18:00:50.258Z,0.90
2019-05-29T18:03:22.134Z,1.32
2019-05-29T18:05:54.984Z,1.25
2019-05-29T18:08:28.683Z,1.37
2019-05-29T18:11:01.140Z,1.32
2019-05-29T18:13:32.719Z,1.02
2019-05-29T18:16:05.606Z,1.30
2019-05-29T18:18:36.990Z,1.45
2019-05-29T18:21:09.098Z,1.10
2019-05-29T18:23:41.972Z,1.60
2019-05-29T18:26:13.417Z,1.15
2019-05-29T18:28:45.966Z,1.40
2019-05-29T18:31:18.363Z,1.30
2019-05-29T18:33:50.076Z,1.55
2019-05-29T18:36:25.435Z,1.10
2019-05-29T18:38:56.686Z,1.60
2019-05-29T18:41:29.226Z,1.45
2019-05-29T18:44:00.840Z,1.30
2019-05-29T18:46:37.584Z,1.67
2019-05-29T18:49:06.011Z,1.40
2019-05-29T18:51:37.376Z,1.30
2019-05-29T18:54:08.758Z,1.30
2019-05-29T18:56:40.337Z,1.40
2019-05-29T18:59:11.818Z,1.62
2019-05-29T19:01:43.165Z,1.42
2019-05-29T19:04:14.614Z,1.22
2019-05-29T19:06:47.615Z,1.32
2019-05-29T19:09:19.193Z,1.17
2019-05-29T19:11:50.649Z,1.30
2019-05-29T19:14:22.070Z,1.32
2019-05-29T19:16:53.699Z,1.45
2019-05-29T19:19:26.179Z,1.17
2019-05-29T19:21:58.238Z,1.30
2019-05-29T19:24:30.636Z,1.25
2019-05-29T19:27:02.933Z,1.42
2019-05-29T19:29:34.405Z,1.02
2019-05-29T19:32:06.219Z,1.37
2019-05-29T19:34:37.553Z,1.57
2019-05-29T19:37:08.962Z,1.60
2019-05-29T19:39:40.270Z,1.40
2019-05-29T19:42:11.713Z,1.30
2019-05-29T19:44:43.201Z,1.60
2019-05-29T19:47:14.666Z,1.32
2019-05-29T19:49:47.125Z,1.55
2019-05-29T19:52:20.439Z,1.50
2019-05-29T19:54:52.202Z,1.47
2019-05-29T19:57:25.950Z,1.27
2019-05-29T19:59:59.063Z,1.70
2019-05-29T20:02:30.527Z,1.22
2019-05-29T20:05:01.839Z,1.65
2019-05-29T20:07:33.278Z,1.10
2019-05-29T20:10:06.569Z,1.30
2019-05-29T20:12:38.267Z,1.30
2019-05-29T20:15:10.853Z,1.20
2019-05-29T20:17:42.372Z,1.50
2019-05-29T20:20:14.611Z,1.25
2019-05-29T20:22:46.222Z,1.45
2019-05-29T20:25:17.899Z,1.37
2019-05-29T20:27:49.367Z,1.57
2019-05-29T20:30:20.809Z,1.50
2019-05-29T20:32:52.055Z,1.60
2019-05-29T20:35:23.698Z,1.40
2019-05-29T20:37:55.183Z,1.57
2019-05-29T20:40:27.878Z,1.50
2019-05-29T20:42:59.507Z,1.37
2019-05-29T20:45:31.438Z,1.65
2019-05-29T20:48:04.766Z,1.67
2019-05-29T20:50:37.015Z,1.90
2019-05-29T20:53:08.591Z,1.40
2019-05-29T20:55:40.363Z,1.57
2019-05-29T20:58:24.147Z,1.77
2019-05-29T21:00:45.706Z,1.40
2019-05-29T21:03:18.252Z,1.60
2019-05-29T21:05:53.452Z,1.82
2019-05-29T21:08:24.753Z,1.40
2019-05-29T21:10:57.025Z,1.40
2019-05-29T21:13:28.538Z,1.37
2019-05-29T21:16:00.274Z,1.65
2019-05-29T21:18:33.698Z,1.50
2019-05-29T21:21:06.810Z,2.15
2019-05-29T21:23:38.411Z,1.60
2019-05-29T21:26:09.781Z,1.90
2019-05-29T21:28:46.993Z,1.92
2019-05-29T21:31:14.826Z,1.82
2019-05-29T21:33:49.276Z,1.57
2019-05-29T21:36:19.760Z,1.90
2019-05-29T21:38:51.338Z,1.67
2019-05-29T21:41:22.855Z,1.80
2019-05-29T21:43:54.425Z,2.00
2019-05-29T21:46:25.929Z,1.90
2019-05-29T21:48:57.370Z,2.45
2019-05-29T21:51:28.876Z,1.92
2019-05-29T21:54:00.515Z,2.25
2019-05-29T21:56:32.747Z,2.12
2019-05-29T21:59:04.399Z,2.00
2019-05-29T22:01:35.948Z,2.35
2019-05-29T22:04:07.447Z,2.37
2019-05-29T22:06:38.820Z,2.10
2019-05-29T22:09:14.503Z,2.17
2019-05-29T22:11:45.848Z,2.30
2019-05-29T22:14:17.621Z,1.98
2019-05-29T22:16:48.847Z,2.50
2019-05-29T22:19:20.420Z,2.40
2019-05-29T22:21:52.908Z,2.50
2019-05-29T22:24:24.407Z,2.52
2019-05-29T22:26:57.281Z,2.65
2019-05-29T22:29:29.230Z,2.40
2019-05-29T22:32:01.617Z,2.55
2019-05-29T22:34:34.006Z,3.20
2019-05-29T22:37:05.663Z,2.72
2019-05-29T22:39:37.129Z,3.12
2019-05-29T22:42:08.580Z,3.20
2019-05-29T22:44:40.164Z,3.33
2019-05-29T22:47:12.116Z,3.98
2019-05-29T22:49:46.075Z,3.67
2019-05-29T22:52:19.358Z,3.55
2019-05-29T22:54:51.644Z,3.95
2019-05-29T22:57:22.975Z,4.30
2019-05-29T22:59:56.029Z,5.67
2019-05-29T23:02:27.290Z,4.50
2019-05-29T23:04:58.688Z,4.33
2019-05-29T23:07:30.339Z,4.50
2019-05-29T23:10:02.694Z,3.83
2019-05-29T23:12:35.781Z,4.00
2019-05-29T23:15:08.808Z,4.08
2019-05-29T23:17:40.172Z,3.37
2019-05-29T23:20:11.794Z,3.02
2019-05-29T23:22:43.406Z,3.40
2019-05-29T23:25:15.144Z,3.00
2019-05-29T23:27:46.564Z,2.72
2019-05-29T23:30:19.412Z,2.75
2019-05-29T23:32:51.188Z,2.70
2019-05-29T23:35:22.567Z,2.60
2019-05-29T23:37:54.983Z,2.85
2019-05-29T23:40:26.379Z,2.87
2019-05-29T23:42:57.912Z,2.77
2019-05-29T23:45:29.461Z,2.95
2019-05-29T23:48:01.815Z,2.50
2019-05-29T23:50:33.214Z,2.75
2019-05-29T23:53:04.926Z,2.75
2019-05-29T23:55:36.188Z,3.05
2019-05-29T23:58:08.398Z,2.77
